M53 weather

Humboldt Municipal Airport
Humboldt, Tennessee, United States

Public forecast

Using degrees Fahrenheit for public forecast. Weather courtesy of forecast.io.

Closest aviation weather report (METAR) to Humboldt Municipal Airport

Closest report is McKellar-Sipes Regional Airport, 12.3 nm (22.8 km) S. Retrieved 2020/02/22 21:53 UTC (37 minutes ago):

KMKL 222153Z 21004KT 10SM CLR 10/M08 A3034 RMK AO2 SLP278 T01001078

Closest aviation forecast (TAF) to Humboldt Municipal Airport

Closest forecast is McKellar-Sipes Regional Airport, 12.3 nm (22.8 km) S. Retrieved 2020/02/22 18:22 UTC (4 hours ago):

TAF KMKL 221720Z 2218/2318 21006KT P6SM FEW250 FM230000 17003KT P6SM SCT250 FM231100 18004KT P6SM BKN090 FM231700 20007KT P6SM VCSH OVC070